createdAt,value
2023-03-18T00:00:17.904Z,99849.34
2023-03-18T00:03:19.971Z,99838.81
2023-03-18T00:06:22.082Z,99850.25
2023-03-18T00:09:25.236Z,99849.09
2023-03-18T00:12:27.321Z,99851.06
2023-03-18T00:15:29.238Z,99851.91
2023-03-18T00:18:32.695Z,99865.63
2023-03-18T00:21:34.446Z,99855.25
2023-03-18T00:24:37.538Z,99857.09
2023-03-18T00:27:39.860Z,99852.50
2023-03-18T00:30:42.568Z,99860.25
2023-03-18T00:33:45.815Z,99862.91
2023-03-18T00:36:51.016Z,99864.09
2023-03-18T00:39:54.333Z,99863.16
2023-03-18T00:43:07.809Z,99866.97
2023-03-18T00:46:10.035Z,99873.66
2023-03-18T00:49:12.099Z,99879.72
2023-03-18T00:52:14.519Z,99872.00
2023-03-18T00:55:17.989Z,99884.31
2023-03-18T00:58:20.126Z,99873.91
2023-03-18T01:01:22.615Z,99873.66
2023-03-18T01:04:24.669Z,99871.53
2023-03-18T01:07:26.366Z,99877.69
2023-03-18T01:10:30.625Z,99874.28
2023-03-18T01:13:33.560Z,99878.38
2023-03-18T01:16:35.410Z,99879.69
2023-03-18T01:19:37.442Z,99875.50
2023-03-18T01:22:42.299Z,99867.75
2023-03-18T01:25:45.628Z,99874.31
2023-03-18T01:28:52.378Z,99872.75
2023-03-18T01:31:54.999Z,99873.53
2023-03-18T01:34:58.190Z,99878.91
2023-03-18T01:41:03.577Z,99883.13
2023-03-18T01:44:13.362Z,99884.97
2023-03-18T01:47:17.314Z,99888.09
2023-03-18T01:50:29.445Z,99889.09
2023-03-18T01:53:36.260Z,99876.13
2023-03-18T01:56:41.390Z,99875.72
2023-03-18T01:59:46.020Z,99883.84
2023-03-18T02:02:49.724Z,99880.13
2023-03-18T02:05:55.530Z,99877.69
2023-03-18T02:08:58.063Z,99868.91
2023-03-18T02:12:01.816Z,99875.75
2023-03-18T02:15:11.457Z,99865.47
2023-03-18T02:18:19.423Z,99848.16
2023-03-18T02:21:33.272Z,99845.28
2023-03-18T02:24:44.502Z,99832.03
2023-03-18T02:27:56.586Z,99843.22
2023-03-18T02:31:02.028Z,99857.38
2023-03-18T02:34:07.168Z,99852.94
2023-03-18T02:37:09.399Z,99861.59
2023-03-18T02:40:18.785Z,99866.47
2023-03-18T02:43:24.922Z,99870.38
2023-03-18T02:46:54.107Z,99881.66
2023-03-18T02:49:56.822Z,99877.97
2023-03-18T02:52:59.783Z,99879.03
2023-03-18T02:56:02.833Z,99875.34
2023-03-18T02:59:07.400Z,99868.66
2023-03-18T03:02:09.251Z,99862.75
2023-03-18T03:05:12.092Z,99867.09
2023-03-18T03:08:15.300Z,99859.88
2023-03-18T03:11:20.630Z,99870.91
2023-03-18T03:14:24.425Z,99857.13
2023-03-18T03:17:31.438Z,99871.19
2023-03-18T03:20:35.549Z,99892.88
2023-03-18T03:23:40.439Z,99894.16
2023-03-18T03:26:42.524Z,99897.56
2023-03-18T03:29:45.751Z,99900.75
2023-03-18T03:32:47.716Z,99889.19
2023-03-18T03:35:51.867Z,99896.03
2023-03-18T03:38:54.003Z,99888.00
2023-03-18T03:41:55.779Z,99894.44
2023-03-18T03:45:00.833Z,99897.47
2023-03-18T03:48:02.767Z,99896.16
2023-03-18T03:51:05.586Z,99898.38
2023-03-18T03:54:07.298Z,99901.00
2023-03-18T03:57:09.251Z,99902.44
2023-03-18T04:00:19.453Z,99893.09
2023-03-18T04:03:23.755Z,99904.38
2023-03-18T04:06:25.949Z,99910.28
2023-03-18T04:09:36.057Z,99905.88
2023-03-18T04:12:41.465Z,99909.28
2023-03-18T04:15:45.101Z,99907.03
2023-03-18T04:18:50.559Z,99905.03
2023-03-18T04:21:53.938Z,99906.09
2023-03-18T04:24:55.945Z,99893.75
2023-03-18T04:27:58.688Z,99898.91
2023-03-18T04:31:01.875Z,99898.63
2023-03-18T04:34:03.962Z,99906.00
2023-03-18T04:37:06.707Z,99908.34
2023-03-18T04:40:12.165Z,99906.47
2023-03-18T04:43:13.977Z,99910.66
2023-03-18T04:46:18.439Z,99918.28
2023-03-18T04:49:24.532Z,99908.06
2023-03-18T04:52:29.440Z,99913.94
2023-03-18T04:55:31.617Z,99924.88
2023-03-18T04:58:36.412Z,99929.50
2023-03-18T05:01:50.428Z,99926.81
2023-03-18T05:04:53.005Z,99925.41
2023-03-18T05:07:55.192Z,99912.44
2023-03-18T05:10:58.639Z,99908.06
2023-03-18T05:14:00.742Z,99911.16
2023-03-18T05:17:05.314Z,99913.88
2023-03-18T05:20:13.359Z,99918.97
2023-03-18T05:23:16.797Z,99928.13
2023-03-18T05:26:24.806Z,99917.50
2023-03-18T05:29:27.521Z,99919.13
2023-03-18T05:32:42.730Z,99922.69
2023-03-18T05:35:45.286Z,99924.94
2023-03-18T05:38:47.422Z,99932.94
2023-03-18T05:41:49.262Z,99929.00
2023-03-18T05:44:58.499Z,99934.25
2023-03-18T05:48:02.675Z,99935.16
2023-03-18T05:51:10.380Z,99935.97
2023-03-18T05:54:14.181Z,99937.81
2023-03-18T05:57:18.426Z,99934.94
2023-03-18T06:00:21.169Z,99938.63
2023-03-18T06:03:27.507Z,99943.09
2023-03-18T06:06:29.317Z,99944.66
2023-03-18T06:09:34.119Z,99952.41
2023-03-18T06:12:37.230Z,99955.97
2023-03-18T06:15:39.119Z,99954.25
2023-03-18T06:18:42.678Z,99957.16
2023-03-18T06:21:44.962Z,99955.28
2023-03-18T06:24:49.001Z,99955.44
2023-03-18T06:27:53.707Z,99951.38
2023-03-18T06:30:59.398Z,99964.78
2023-03-18T06:34:05.061Z,99956.59
2023-03-18T06:37:09.730Z,99960.69
2023-03-18T06:40:12.586Z,99957.88
2023-03-18T06:43:15.587Z,99954.88
2023-03-18T06:46:19.247Z,99958.03
2023-03-18T06:49:23.842Z,99958.41
2023-03-18T06:52:31.852Z,99958.94
2023-03-18T06:55:40.202Z,99965.41
2023-03-18T06:58:42.352Z,99973.28
2023-03-18T07:01:45.052Z,99968.94
2023-03-18T07:04:48.900Z,99971.84
2023-03-18T07:07:51.188Z,99975.28
2023-03-18T07:10:56.272Z,99983.72
2023-03-18T07:14:00.308Z,99975.56
2023-03-18T07:17:06.508Z,99981.19
2023-03-18T07:20:11.405Z,99984.22
2023-03-18T07:23:13.416Z,99990.66
2023-03-18T07:26:15.262Z,99992.50
2023-03-18T07:29:17.358Z,100002.00
2023-03-18T07:32:19.809Z,100002.75
2023-03-18T07:35:23.616Z,100002.53
2023-03-18T07:38:25.476Z,99996.72
2023-03-18T07:41:27.837Z,99997.13
2023-03-18T07:44:29.783Z,99991.56
2023-03-18T07:47:31.596Z,99995.75
2023-03-18T07:50:35.292Z,99997.19
2023-03-18T07:53:38.220Z,99993.78
2023-03-18T07:56:39.998Z,100004.22
2023-03-18T07:59:41.798Z,100003.66
2023-03-18T08:02:43.880Z,100004.09
2023-03-18T08:05:47.156Z,99998.38
2023-03-18T08:08:49.386Z,100000.19
2023-03-18T08:11:51.136Z,99994.97
2023-03-18T08:14:53.870Z,99995.69
2023-03-18T08:17:56.032Z,100001.75
2023-03-18T08:20:59.288Z,100006.38
2023-03-18T08:24:01.060Z,100006.00
2023-03-18T08:27:03.122Z,100008.91
2023-03-18T08:30:06.997Z,100012.47
2023-03-18T08:33:08.854Z,100011.44
2023-03-18T08:36:12.378Z,100018.69
2023-03-18T08:39:14.517Z,100019.97
2023-03-18T08:42:16.883Z,100026.28
2023-03-18T08:45:20.171Z,100026.06
2023-03-18T08:48:23.552Z,100026.75
2023-03-18T08:51:26.935Z,100021.50
2023-03-18T08:54:31.009Z,100020.91
2023-03-18T08:57:33.035Z,100021.16
2023-03-18T09:00:36.602Z,100022.19
2023-03-18T09:03:38.736Z,100022.66
2023-03-18T09:06:42.285Z,100021.72
2023-03-18T09:09:44.636Z,100019.06
2023-03-18T09:12:46.742Z,100029.16
2023-03-18T09:15:48.852Z,100027.38
2023-03-18T09:18:50.750Z,100026.44
2023-03-18T09:21:54.142Z,100026.19
2023-03-18T09:24:56.023Z,100021.69
2023-03-18T09:27:57.997Z,100020.44
2023-03-18T09:30:59.933Z,100019.25
2023-03-18T09:34:02.566Z,100010.94
2023-03-18T09:37:05.751Z,100010.63
2023-03-18T09:40:10.710Z,100001.88
2023-03-18T09:43:34.019Z,99993.09
2023-03-18T09:46:51.930Z,99994.03
2023-03-18T09:50:19.421Z,99997.44
2023-03-18T09:53:32.726Z,100000.28
2023-03-18T09:56:38.225Z,99997.66
2023-03-18T09:59:44.785Z,99994.28
2023-03-18T10:02:51.606Z,99993.75
2023-03-18T10:05:58.355Z,99999.84
2023-03-18T10:09:10.090Z,99995.91
2023-03-18T10:12:18.685Z,99995.91
2023-03-18T10:15:31.461Z,99990.28
2023-03-18T10:18:35.746Z,99993.97
2023-03-18T10:21:47.007Z,99993.03
2023-03-18T10:25:01.314Z,99993.66
2023-03-18T10:28:28.846Z,99995.78
2023-03-18T10:31:40.417Z,100004.25
2023-03-18T10:34:53.516Z,100003.53
2023-03-18T10:38:02.499Z,100003.75
2023-03-18T10:41:15.887Z,99996.38
2023-03-18T10:44:22.398Z,99999.53
2023-03-18T10:47:29.076Z,99990.88
2023-03-18T10:50:36.201Z,99988.63
2023-03-18T11:45:46.922Z,99980.00
2023-03-18T11:48:48.878Z,99963.38
2023-03-18T11:52:01.165Z,99966.88
2023-03-18T11:55:13.956Z,99957.06
2023-03-18T11:58:36.589Z,99960.16
2023-03-18T12:01:54.106Z,99953.28
2023-03-18T12:05:10.930Z,99957.94
2023-03-18T12:08:20.678Z,99953.53
2023-03-18T12:11:37.437Z,99945.75
2023-03-18T12:14:45.927Z,99948.16
2023-03-18T12:17:59.522Z,99937.44
2023-03-18T12:21:09.868Z,99937.84
2023-03-18T12:24:30.347Z,99938.66
2023-03-18T12:27:41.835Z,99925.38
2023-03-18T12:30:59.622Z,99944.59
2023-03-18T12:34:16.361Z,99921.81
2023-03-18T12:37:31.968Z,99932.59
2023-03-18T12:40:46.096Z,99920.13
2023-03-18T12:44:07.877Z,99916.28
2023-03-18T12:47:15.382Z,99914.50
2023-03-18T12:50:23.147Z,99915.97
2023-03-18T12:53:30.314Z,99918.31
2023-03-18T12:56:39.443Z,99915.53
2023-03-18T12:59:47.707Z,99920.88
2023-03-18T13:02:57.067Z,99909.72
2023-03-18T13:06:05.293Z,99918.38
2023-03-18T13:09:15.998Z,99916.50
2023-03-18T13:12:22.172Z,99912.88
2023-03-18T13:15:31.057Z,99908.28
2023-03-18T13:18:39.579Z,99915.28
2023-03-18T13:21:45.741Z,99911.44
2023-03-18T13:25:00.178Z,99904.75
2023-03-18T13:28:42.628Z,99899.00
2023-03-18T13:31:52.976Z,99904.63
2023-03-18T13:35:20.640Z,99905.84
2023-03-18T13:38:46.364Z,99899.06
2023-03-18T13:42:13.238Z,99902.34
2023-03-18T13:45:24.323Z,99906.28
2023-03-18T13:48:30.478Z,99899.16
2023-03-18T13:51:50.310Z,99894.56
2023-03-18T13:54:54.030Z,99906.91
2023-03-18T13:58:07.842Z,99890.09
2023-03-18T14:01:28.684Z,99897.22
2023-03-18T14:04:32.894Z,99894.19
2023-03-18T14:07:47.812Z,99888.13
2023-03-18T14:11:29.924Z,99888.47
2023-03-18T14:15:01.401Z,99876.72
2023-03-18T14:18:03.890Z,99883.28
2023-03-18T14:21:23.625Z,99883.41
2023-03-18T14:24:26.163Z,99881.09
2023-03-18T14:27:29.805Z,99885.97
2023-03-18T14:30:46.677Z,99879.81
2023-03-18T14:34:23.465Z,99883.81
2023-03-18T14:37:27.905Z,99876.81
2023-03-18T14:40:31.227Z,99872.94
2023-03-18T14:43:38.012Z,99876.13
2023-03-18T14:46:44.910Z,99873.19
2023-03-18T14:49:51.373Z,99878.31
2023-03-18T14:52:57.673Z,99873.41
2023-03-18T14:56:01.388Z,99876.06
2023-03-18T14:59:04.625Z,99872.84
2023-03-18T15:02:21.109Z,99869.06
2023-03-18T15:05:22.844Z,99856.06
2023-03-18T15:08:37.457Z,99853.00
2023-03-18T15:11:48.019Z,99863.94
2023-03-18T15:14:51.239Z,99858.53
2023-03-18T15:17:53.928Z,99863.47
2023-03-18T15:21:01.422Z,99858.09
2023-03-18T15:24:07.114Z,99851.31
2023-03-18T15:27:14.561Z,99851.88
2023-03-18T15:30:29.582Z,99854.19
2023-03-18T15:33:36.580Z,99848.09
2023-03-18T15:36:46.623Z,99849.25
2023-03-18T15:39:48.609Z,99845.47
2023-03-18T15:42:51.006Z,99842.34
2023-03-18T15:45:57.641Z,99840.66
2023-03-18T15:49:01.984Z,99837.69
2023-03-18T15:52:08.689Z,99836.66
2023-03-18T15:55:26.336Z,99831.81
2023-03-18T15:58:35.253Z,99836.94
2023-03-18T16:01:40.152Z,99835.69
2023-03-18T16:04:44.328Z,99833.97
2023-03-18T16:07:46.749Z,99833.44
2023-03-18T16:10:50.529Z,99831.25
2023-03-18T16:13:52.512Z,99835.25
2023-03-18T16:16:55.556Z,99829.28
2023-03-18T16:19:57.429Z,99837.59
2023-03-18T16:23:00.426Z,99832.84
2023-03-18T16:26:03.051Z,99827.53
2023-03-18T16:29:14.896Z,99820.78
2023-03-18T16:32:17.983Z,99827.94
2023-03-18T16:35:23.164Z,99824.91
2023-03-18T16:38:25.936Z,99824.03
2023-03-18T16:41:27.789Z,99840.53
2023-03-18T16:44:29.695Z,99828.22
2023-03-18T16:47:32.921Z,99837.91
2023-03-18T16:50:37.602Z,99839.59
2023-03-18T16:53:39.795Z,99839.41
2023-03-18T16:56:41.513Z,99835.06
2023-03-18T16:59:48.099Z,99844.59
2023-03-18T17:02:52.584Z,99840.16
2023-03-18T17:05:54.448Z,99844.13
2023-03-18T17:08:56.822Z,99846.41
2023-03-18T17:12:03.807Z,99848.75
2023-03-18T17:15:12.442Z,99855.66
2023-03-18T17:18:17.484Z,99864.22
2023-03-18T17:21:19.256Z,99872.50
2023-03-18T17:24:22.807Z,99870.31
2023-03-18T17:27:26.642Z,99867.75
2023-03-18T17:30:32.573Z,99864.97
2023-03-18T17:33:37.115Z,99875.94
2023-03-18T17:36:38.907Z,99871.16
2023-03-18T17:39:40.781Z,99872.31
2023-03-18T17:42:45.730Z,99877.94
2023-03-18T17:45:47.681Z,99880.56
2023-03-18T17:48:51.759Z,99881.66
2023-03-18T17:51:55.577Z,99878.66
2023-03-18T17:54:57.514Z,99890.88
2023-03-18T17:57:59.805Z,99882.53
2023-03-18T18:01:05.653Z,99881.53
2023-03-18T18:04:14.820Z,99878.06
2023-03-18T18:07:18.560Z,99881.16
2023-03-18T18:10:20.684Z,99876.47
2023-03-18T18:13:23.089Z,99876.44
2023-03-18T18:16:28.059Z,99879.19
2023-03-18T18:19:31.322Z,99877.75
2023-03-18T18:22:33.296Z,99883.97
2023-03-18T18:25:35.726Z,99887.28
2023-03-18T18:28:39.182Z,99887.91
2023-03-18T18:31:41.610Z,99888.25
2023-03-18T18:34:48.180Z,99896.16
2023-03-18T18:37:49.990Z,99890.59
2023-03-18T18:40:53.089Z,99886.28
2023-03-18T18:43:55.550Z,99889.91
2023-03-18T18:46:57.381Z,99889.13
2023-03-18T18:50:00.609Z,99899.72
2023-03-18T18:53:02.680Z,99901.44
2023-03-18T18:56:13.499Z,99900.47
2023-03-18T18:59:23.235Z,99899.03
2023-03-18T19:02:31.524Z,99898.16
2023-03-18T19:05:35.905Z,99899.16
2023-03-18T19:08:40.674Z,99899.06
2023-03-18T19:11:42.756Z,99902.06
2023-03-18T19:14:45.290Z,99900.06
2023-03-18T19:17:47.882Z,99907.44
2023-03-18T19:20:52.794Z,99905.34
2023-03-18T19:23:54.757Z,99909.72
2023-03-18T19:26:58.612Z,99908.66
2023-03-18T19:30:05.486Z,99910.66
2023-03-18T19:33:14.190Z,99912.34
2023-03-18T19:36:24.442Z,99920.88
2023-03-18T19:39:27.799Z,99913.22
2023-03-18T19:42:29.705Z,99913.34
2023-03-18T19:45:32.019Z,99910.78
2023-03-18T19:48:34.013Z,99907.91
2023-03-18T19:51:37.231Z,99912.97
2023-03-18T19:54:39.042Z,99924.59
2023-03-18T19:57:42.887Z,99924.38
2023-03-18T20:00:44.911Z,99921.09
2023-03-18T20:03:47.186Z,99921.66
2023-03-18T20:06:51.096Z,99924.91
2023-03-18T20:09:54.162Z,99926.38
2023-03-18T20:12:56.207Z,99928.09
2023-03-18T20:15:58.227Z,99934.25
2023-03-18T20:33:25.210Z,99947.91
2023-03-18T20:36:29.297Z,99942.72
2023-03-18T20:39:31.427Z,99945.88
2023-03-18T20:42:33.856Z,99946.56
2023-03-18T20:45:36.430Z,99949.09
2023-03-18T20:48:38.486Z,99943.00
2023-03-18T20:51:42.067Z,99945.56
2023-03-18T20:54:44.400Z,99937.00
2023-03-18T20:57:47.043Z,99936.88
2023-03-18T21:00:50.778Z,99937.81
2023-03-18T21:03:54.359Z,99938.59
2023-03-18T21:06:59.241Z,99938.72
2023-03-18T21:10:02.051Z,99944.66
2023-03-18T21:13:20.477Z,99947.28
2023-03-18T21:16:24.553Z,99940.19
2023-03-18T21:19:29.235Z,99944.41
2023-03-18T21:22:33.407Z,99943.75
2023-03-18T21:25:41.552Z,99948.47
2023-03-18T21:28:43.722Z,99941.50
2023-03-18T21:31:47.001Z,99940.56
2023-03-18T21:34:51.865Z,99934.16
2023-03-18T21:37:55.568Z,99943.88
2023-03-18T21:41:00.578Z,99941.38
2023-03-18T21:44:10.411Z,99950.69
2023-03-18T21:47:17.604Z,99946.38
2023-03-18T21:50:22.620Z,99950.69
2023-03-18T21:53:28.746Z,99957.53
2023-03-18T21:56:33.843Z,99971.06
2023-03-18T21:59:36.527Z,99966.84
2023-03-18T22:02:38.877Z,99972.75
2023-03-18T22:05:41.422Z,99981.03
2023-03-18T22:08:48.619Z,99972.75
2023-03-18T22:11:50.748Z,99969.56
2023-03-18T22:15:03.496Z,99959.78
2023-03-18T22:18:10.572Z,99955.50
2023-03-18T22:21:17.344Z,99952.06
2023-03-18T22:24:20.874Z,99956.00
2023-03-18T22:27:25.466Z,99941.53
2023-03-18T22:30:29.329Z,99941.16
2023-03-18T22:33:33.330Z,99946.53
2023-03-18T22:36:38.786Z,99948.78
2023-03-18T22:39:43.336Z,99953.97
2023-03-18T22:42:46.677Z,99957.38
2023-03-18T22:45:48.776Z,99961.34
2023-03-18T22:48:50.571Z,99964.91
2023-03-18T22:51:52.790Z,99968.50
2023-03-18T22:55:00.348Z,99975.75
2023-03-18T22:58:02.762Z,99979.72
2023-03-18T23:01:05.816Z,99984.03
2023-03-18T23:04:10.929Z,99998.91
2023-03-18T23:07:23.582Z,99996.06
2023-03-18T23:10:28.224Z,99991.09
2023-03-18T23:13:34.550Z,99991.06
2023-03-18T23:16:36.692Z,99992.19
2023-03-18T23:19:38.549Z,99992.41
2023-03-18T23:22:41.335Z,99997.16
2023-03-18T23:25:45.500Z,99993.16
2023-03-18T23:28:48.887Z,99991.78
2023-03-18T23:31:51.306Z,99990.41
2023-03-18T23:34:53.552Z,99998.78
2023-03-18T23:37:55.560Z,99991.03
2023-03-18T23:41:01.915Z,99983.75
2023-03-18T23:44:04.274Z,99984.31
2023-03-18T23:47:07.507Z,99982.75
2023-03-18T23:50:14.526Z,99986.50
2023-03-18T23:53:17.184Z,99992.47
2023-03-18T23:56:21.042Z,99999.16
2023-03-18T23:59:23.244Z,99999.16
